Time;durP1;ratioP1;P1;durP2;ratioP2;P2;SDS_P1;SDS_P2;PMS_P1;PMS_P2;Temp;Humidity;BMP_temperature;BMP_pressure;BME280_temperature;BME280_humidity;BME280_pressure;Samples;Min_cycle;Max_cycle;Signal;HPM_P1;HPM_P2
2022/03/20 00:02:24;;;;;;;2.53;2.33;;;4.80;99.90;;;;;;5075244;28;20180;-78
2022/03/20 00:04:49;;;;;;;2.43;2.33;;;4.90;99.90;;;;;;5075294;28;20184;-79
2022/03/20 00:07:15;;;;;;;2.20;1.77;;;4.90;99.90;;;;;;5073199;28;20262;-78
2022/03/20 00:09:41;;;;;;;5.77;3.10;;;4.90;99.90;;;;;;5073445;28;20168;-79
2022/03/20 00:12:07;;;;;;;2.53;1.90;;;5.00;99.90;;;;;;5076990;28;20184;-79
2022/03/20 00:14:32;;;;;;;1.50;1.40;;;5.00;99.90;;;;;;5073876;28;20185;-80
2022/03/20 00:16:58;;;;;;;5.90;5.30;;;5.00;99.90;;;;;;5073313;28;20215;-78
2022/03/20 00:19:25;;;;;;;1.93;1.83;;;5.00;99.90;;;;;;5073224;28;20180;-78
2022/03/20 00:21:50;;;;;;;3.17;2.93;;;5.00;99.90;;;;;;5072402;28;20652;-78
2022/03/20 00:24:17;;;;;;;1.83;1.70;;;5.00;99.90;;;;;;5072718;28;20196;-78
2022/03/20 00:26:43;;;;;;;3.27;2.30;;;5.00;99.90;;;;;;5071267;28;20738;-78
2022/03/20 00:29:08;;;;;;;1.30;1.30;;;5.00;99.90;;;;;;5072683;28;20218;-79
2022/03/20 00:31:34;;;;;;;2.47;2.10;;;4.90;99.90;;;;;;5072125;28;20180;-79
2022/03/20 00:34:00;;;;;;;9.97;1.97;;;4.90;99.90;;;;;;5072500;28;20196;-77
2022/03/20 00:36:25;;;;;;;4.93;4.43;;;4.90;99.90;;;;;;5072689;28;20189;-77
2022/03/20 00:38:51;;;;;;;2.43;2.30;;;4.80;99.90;;;;;;5073199;28;20202;-79
2022/03/20 00:41:16;;;;;;;5.17;2.87;;;4.70;99.90;;;;;;5073215;28;20597;-76
2022/03/20 00:43:42;;;;;;;1.63;1.53;;;4.60;99.90;;;;;;5073971;28;20207;-79
2022/03/20 00:46:11;;;;;;;2.47;1.27;;;4.50;99.90;;;;;;5074497;28;20691;-77
2022/03/20 00:48:37;;;;;;;1.83;1.73;;;4.40;99.90;;;;;;5073386;28;20291;-77
2022/03/20 00:51:06;;;;;;;1.33;1.23;;;4.30;99.90;;;;;;5073228;28;20279;-77
2022/03/20 00:53:31;;;;;;;4.67;3.97;;;4.20;99.90;;;;;;5073841;28;20172;-78
2022/03/20 00:55:57;;;;;;;1.97;1.87;;;4.20;99.90;;;;;;5074526;28;20203;-79
2022/03/20 00:58:22;;;;;;;10.30;3.57;;;4.10;99.90;;;;;;5073240;28;20176;-79
2022/03/20 01:00:50;;;;;;;4.10;2.37;;;4.10;99.90;;;;;;5072169;28;20184;-79
2022/03/20 01:03:16;;;;;;;0.77;0.77;;;4.20;99.90;;;;;;5071713;28;20188;-78
2022/03/20 01:05:41;;;;;;;2.80;2.67;;;4.10;99.90;;;;;;5071794;28;20200;-79
2022/03/20 01:08:07;;;;;;;4.53;2.83;;;4.10;99.90;;;;;;5071718;28;20204;-79
2022/03/20 01:10:32;;;;;;;2.83;1.60;;;4.10;99.90;;;;;;5071983;28;20176;-78
2022/03/20 01:12:58;;;;;;;2.37;2.27;;;4.10;99.90;;;;;;5074886;28;20183;-79
2022/03/20 01:15:23;;;;;;;6.37;4.07;;;4.20;99.90;;;;;;5073725;28;20196;-79
2022/03/20 01:17:49;;;;;;;2.03;1.90;;;4.10;99.90;;;;;;5074859;28;20168;-78
2022/03/20 01:20:15;;;;;;;2.97;2.57;;;4.00;99.90;;;;;;5072422;28;20237;-78
2022/03/20 01:22:41;;;;;;;1.87;1.77;;;4.00;99.90;;;;;;5071858;28;20184;-77
2022/03/20 01:25:08;;;;;;;3.37;3.10;;;4.00;99.90;;;;;;5071133;28;20206;-77
2022/03/20 01:27:34;;;;;;;1.57;1.50;;;4.00;99.90;;;;;;5072338;28;20624;-78
2022/03/20 01:29:59;;;;;;;4.40;3.63;;;4.00;99.90;;;;;;5071155;28;20194;-77
2022/03/20 01:32:26;;;;;;;4.20;3.33;;;4.10;99.90;;;;;;5071558;28;20598;-78
2022/03/20 01:34:52;;;;;;;1.00;1.00;;;4.20;99.90;;;;;;5072514;28;20192;-77
2022/03/20 01:37:18;;;;;;;2.47;2.37;;;4.20;99.90;;;;;;5072301;28;20176;-77
2022/03/20 01:39:45;;;;;;;6.60;4.37;;;4.40;99.90;;;;;;5071691;28;20184;-77
2022/03/20 01:42:11;;;;;;;0.73;0.73;;;4.40;99.90;;;;;;5072900;28;20183;-78
2022/03/20 01:44:37;;;;;;;4.93;4.07;;;4.40;99.90;;;;;;5076276;28;20180;-78
2022/03/20 01:47:05;;;;;;;4.00;2.03;;;4.40;99.90;;;;;;5075894;28;20812;-78
2022/03/20 01:49:31;;;;;;;3.77;2.30;;;4.50;99.90;;;;;;5074656;28;20593;-77
2022/03/20 01:52:13;;;;;;;1.97;1.87;;;4.50;99.90;;;;;;5075739;28;20266;-78
2022/03/20 01:54:44;;;;;;;2.50;2.30;;;4.70;99.90;;;;;;5075663;28;20180;-77
2022/03/20 01:57:13;;;;;;;3.20;2.43;;;4.70;99.90;;;;;;5075752;28;20227;-79
2022/03/20 01:59:39;;;;;;;3.30;3.10;;;4.80;99.90;;;;;;5075690;28;20679;-77
2022/03/20 02:02:06;;;;;;;1.97;1.30;;;4.80;99.90;;;;;;5075207;28;20694;-78
2022/03/20 02:04:35;;;;;;;1.60;1.50;;;4.80;99.90;;;;;;5074538;28;20184;-79
2022/03/20 02:07:02;;;;;;;5.37;3.13;;;4.80;99.90;;;;;;5075494;28;20559;-78
2022/03/20 02:09:27;;;;;;;3.83;1.60;;;4.80;99.90;;;;;;5074776;28;20169;-78
2022/03/20 02:11:55;;;;;;;5.67;2.93;;;4.80;99.90;;;;;;5077235;28;20184;-78
2022/03/20 02:14:20;;;;;;;2.30;2.20;;;4.70;99.90;;;;;;5073310;28;20173;-76
2022/03/20 02:16:47;;;;;;;3.97;1.83;;;4.60;99.90;;;;;;5074371;28;20657;-76
2022/03/20 02:19:14;;;;;;;2.97;1.87;;;4.60;99.90;;;;;;5074564;28;20172;-78
2022/03/20 02:21:40;;;;;;;1.80;1.73;;;4.50;99.90;;;;;;5074139;28;20262;-77
2022/03/20 02:24:29;;;;;;;4.10;3.33;;;4.40;99.90;;;;;;5074529;28;20211;-76
2022/03/20 02:27:22;;;;;;;3.00;1.70;;;4.40;99.90;;;;;;5107364;22;20571;-75
2022/03/20 02:29:48;;;;;;;1.23;1.13;;;4.40;99.90;;;;;;5101283;28;20202;-74
2022/03/20 02:32:17;;;;;;;3.57;3.23;;;4.40;99.90;;;;;;5113070;28;20192;-76
2022/03/20 02:34:47;;;;;;;3.93;2.57;;;4.30;99.90;;;;;;5115153;28;20594;-77
2022/03/20 02:37:13;;;;;;;3.00;2.73;;;4.20;99.90;;;;;;5113273;28;20328;-77
2022/03/20 02:39:39;;;;;;;3.00;2.80;;;4.20;99.90;;;;;;5113617;28;20545;-76
2022/03/20 02:42:06;;;;;;;0.83;0.83;;;4.10;99.90;;;;;;5114035;28;20664;-74
2022/03/20 02:45:05;;;;;;;3.87;1.40;;;4.00;99.90;;;;;;5114456;28;20194;-75
2022/03/20 02:47:34;;;;;;;1.93;1.80;;;3.90;99.90;;;;;;5090898;28;20234;-75
2022/03/20 02:50:07;;;;;;;8.47;2.70;;;3.90;99.90;;;;;;5113051;28;20182;-76
2022/03/20 02:52:46;;;;;;;3.17;2.07;;;3.90;99.90;;;;;;5113830;28;20186;-73
2022/03/20 02:55:12;;;;;;;1.87;1.77;;;4.00;99.90;;;;;;5113753;28;20193;-75
2022/03/20 02:57:38;;;;;;;2.33;2.23;;;4.00;99.90;;;;;;5114275;28;20210;-75
2022/03/20 03:00:05;;;;;;;2.23;2.10;;;4.00;99.90;;;;;;5112730;28;20171;-77
2022/03/20 03:02:44;;;;;;;5.80;3.63;;;4.10;99.90;;;;;;5112415;28;20227;-75
2022/03/20 03:05:16;;;;;;;3.33;3.03;;;4.10;99.90;;;;;;5107432;28;20186;-77
2022/03/20 03:13:16;;;;;;;2.10;2.00;;;4.10;99.90;;;;;;5108120;28;20265;-76
2022/03/20 03:15:42;;;;;;;3.83;2.00;;;4.10;99.90;;;;;;5113641;28;20199;-76
2022/03/20 03:18:08;;;;;;;5.40;3.53;;;4.00;99.90;;;;;;5114277;28;20652;-78
2022/03/20 03:20:34;;;;;;;2.13;2.03;;;4.00;99.90;;;;;;5114181;28;20210;-77
2022/03/20 03:23:00;;;;;;;1.90;1.80;;;3.90;99.90;;;;;;5113361;28;20272;-77
2022/03/20 03:25:26;;;;;;;3.73;3.03;;;3.90;99.90;;;;;;5113540;28;20175;-74
2022/03/20 03:27:52;;;;;;;5.03;2.73;;;3.90;99.90;;;;;;5113636;28;20195;-76
2022/03/20 03:30:19;;;;;;;0.80;0.70;;;3.90;99.90;;;;;;5112252;28;20179;-76
2022/03/20 03:32:46;;;;;;;2.27;2.17;;;3.90;99.90;;;;;;5113135;28;20193;-76
2022/03/20 03:37:57;;;;;;;2.40;1.87;;;3.80;99.90;;;;;;5113735;28;20181;-76
2022/03/20 03:40:23;;;;;;;3.03;2.73;;;3.70;99.90;;;;;;5113863;28;20183;-76
2022/03/20 03:42:49;;;;;;;5.67;2.93;;;3.50;99.90;;;;;;5112977;28;20204;-76
2022/03/20 03:45:15;;;;;;;4.53;4.20;;;3.40;99.90;;;;;;5111953;28;20175;-74
2022/03/20 03:47:41;;;;;;;4.33;2.17;;;3.30;99.90;;;;;;5113125;28;20206;-75
2022/03/20 03:50:10;;;;;;;1.20;1.20;;;3.30;99.90;;;;;;5113254;28;20171;-74
2022/03/20 03:52:37;;;;;;;1.13;1.13;;;3.20;99.90;;;;;;5112867;28;20266;-76
2022/03/20 03:55:04;;;;;;;4.30;4.00;;;3.10;99.90;;;;;;5112984;28;20171;-76
2022/03/20 03:57:31;;;;;;;1.07;1.07;;;3.00;99.90;;;;;;5113233;28;20207;-76
2022/03/20 03:59:56;;;;;;;3.03;2.80;;;2.90;99.90;;;;;;5113122;28;20662;-76
2022/03/20 04:02:22;;;;;;;1.90;1.77;;;2.80;99.90;;;;;;5111382;28;20223;-76
2022/03/20 04:04:48;;;;;;;10.67;2.83;;;2.80;99.90;;;;;;5109038;28;20184;-75
2022/03/20 04:07:17;;;;;;;0.87;0.87;;;2.70;99.90;;;;;;5099423;28;20210;-75
2022/03/20 04:09:43;;;;;;;1.93;1.83;;;2.70;99.90;;;;;;5112646;27;20165;-75
2022/03/20 04:12:10;;;;;;;1.83;1.20;;;2.60;99.90;;;;;;5108904;28;20546;-75
2022/03/20 04:14:35;;;;;;;3.43;2.77;;;2.60;99.90;;;;;;5112635;28;20184;-74
2022/03/20 04:17:03;;;;;;;2.17;2.07;;;2.50;99.90;;;;;;5112640;28;20201;-75
2022/03/20 04:19:29;;;;;;;1.77;1.67;;;2.50;99.90;;;;;;5112596;28;20174;-75
2022/03/20 04:21:54;;;;;;;1.73;1.63;;;2.40;99.90;;;;;;5112407;28;20268;-77
2022/03/20 04:24:20;;;;;;;5.17;3.53;;;2.40;99.90;;;;;;5112793;28;20170;-77
2022/03/20 04:26:46;;;;;;;2.57;2.27;;;2.40;99.90;;;;;;5111509;28;20247;-77
2022/03/20 04:29:12;;;;;;;1.90;1.80;;;2.30;99.90;;;;;;5113809;28;20176;-77
2022/03/20 04:31:37;;;;;;;1.90;1.50;;;2.30;99.90;;;;;;5112063;28;20658;-75
2022/03/20 04:34:04;;;;;;;2.37;2.20;;;2.30;99.90;;;;;;5112484;28;20595;-75
2022/03/20 04:36:30;;;;;;;4.47;2.33;;;2.30;99.90;;;;;;5112303;28;20198;-76
2022/03/20 04:38:58;;;;;;;1.57;1.47;;;2.30;99.90;;;;;;5112155;28;20245;-75
2022/03/20 04:41:25;;;;;;;1.03;1.03;;;2.30;99.90;;;;;;5112075;28;20169;-75
2022/03/20 04:43:51;;;;;;;2.93;1.57;;;2.20;99.90;;;;;;5104420;28;20183;-75
2022/03/20 04:46:17;;;;;;;6.53;3.77;;;2.20;99.90;;;;;;5099322;28;20269;-75
2022/03/20 04:59:53;;;;;;;0.47;0.47;;;2.20;99.90;;;;;;5112304;28;20183;-75
2022/03/20 05:02:19;;;;;;;2.13;2.03;;;2.20;99.90;;;;;;5111533;28;20180;-75
2022/03/20 05:04:44;;;;;;;2.73;2.53;;;2.20;99.90;;;;;;5109317;28;20187;-75
2022/03/20 05:07:10;;;;;;;1.17;0.90;;;2.20;99.90;;;;;;5098857;28;20245;-75
2022/03/20 05:15:06;;;;;;;12.53;2.40;;;2.20;99.90;;;;;;5111927;28;20180;-75
2022/03/20 05:17:31;;;;;;;1.83;1.77;;;2.20;99.90;;;;;;5111362;28;20245;-75
2022/03/20 05:19:57;;;;;;;3.80;3.43;;;2.30;99.90;;;;;;5110445;28;20181;-75
2022/03/20 05:22:23;;;;;;;3.50;2.90;;;2.40;99.90;;;;;;5110206;28;20224;-76
2022/03/20 05:24:48;;;;;;;4.47;3.40;;;2.40;99.90;;;;;;5111675;28;20208;-75
2022/03/20 05:27:14;;;;;;;3.87;3.60;;;2.50;99.90;;;;;;5111346;28;20804;-75
2022/03/20 05:29:40;;;;;;;3.43;2.43;;;2.60;99.90;;;;;;5110376;28;20203;-74
2022/03/20 05:32:07;;;;;;;2.37;2.27;;;2.60;99.90;;;;;;5110309;28;20179;-74
2022/03/20 05:34:34;;;;;;;2.67;2.10;;;2.80;99.90;;;;;;5110468;28;20178;-75
2022/03/20 05:37:00;;;;;;;2.70;2.60;;;2.80;99.90;;;;;;5111547;28;20205;-76
2022/03/20 05:39:25;;;;;;;2.23;2.13;;;2.90;99.90;;;;;;5111649;28;20187;-75
2022/03/20 05:41:51;;;;;;;5.97;4.13;;;2.90;99.90;;;;;;5114362;28;20354;-74
2022/03/20 05:44:25;;;;;;;3.53;3.33;;;2.90;99.90;;;;;;5113747;28;20183;-75
2022/03/20 05:46:52;;;;;;;2.73;2.27;;;2.90;99.90;;;;;;5110215;28;20203;-75
2022/03/20 05:49:19;;;;;;;3.17;2.97;;;3.00;99.90;;;;;;5111462;28;20232;-75
2022/03/20 05:51:46;;;;;;;3.40;3.13;;;3.00;99.90;;;;;;5111022;28;20175;-75
2022/03/20 05:54:13;;;;;;;3.70;2.93;;;3.00;99.90;;;;;;5111434;28;20190;-75
2022/03/20 05:59:23;;;;;;;3.07;2.87;;;3.20;99.90;;;;;;5111635;28;20538;-74
2022/03/20 06:01:52;;;;;;;2.90;2.80;;;3.20;99.90;;;;;;5111005;28;20171;-75
2022/03/20 06:04:18;;;;;;;1.70;1.47;;;3.30;99.90;;;;;;5111494;28;20184;-75
2022/03/20 06:06:44;;;;;;;4.13;3.67;;;3.40;99.90;;;;;;5094926;28;20199;-74
2022/03/20 06:09:10;;;;;;;0.80;0.80;;;3.40;99.90;;;;;;5111653;28;20175;-74
2022/03/20 06:11:36;;;;;;;1.17;1.17;;;3.50;99.90;;;;;;5107760;28;20266;-74
2022/03/20 06:14:03;;;;;;;1.97;1.87;;;3.60;99.90;;;;;;5111199;28;20282;-75
2022/03/20 06:16:29;;;;;;;8.00;4.20;;;3.60;99.90;;;;;;5111271;28;20209;-74
2022/03/20 06:18:55;;;;;;;7.27;4.27;;;3.80;99.90;;;;;;5111266;28;20221;-75
2022/03/20 06:21:22;;;;;;;1.77;1.67;;;3.90;99.90;;;;;;5109591;28;20186;-74
2022/03/20 06:23:48;;;;;;;2.87;2.57;;;3.90;99.90;;;;;;5111309;28;20182;-74
2022/03/20 06:26:14;;;;;;;3.73;3.50;;;3.90;99.90;;;;;;5110922;28;20313;-75
2022/03/20 06:28:40;;;;;;;2.20;2.00;;;3.90;99.90;;;;;;5111235;28;20728;-75
2022/03/20 06:31:10;;;;;;;2.07;1.97;;;3.90;99.90;;;;;;5114667;28;20195;-74
2022/03/20 06:33:37;;;;;;;2.10;2.00;;;3.90;99.90;;;;;;5114600;28;20262;-75
2022/03/20 06:36:04;;;;;;;8.73;4.57;;;4.10;99.90;;;;;;5114418;28;20290;-75
2022/03/20 06:38:30;;;;;;;5.03;1.80;;;4.30;99.90;;;;;;5114817;28;20183;-75
2022/03/20 06:40:57;;;;;;;5.27;3.33;;;4.40;99.90;;;;;;5114879;28;20190;-75
2022/03/20 06:43:23;;;;;;;3.20;2.90;;;4.50;99.90;;;;;;5112897;28;20183;-75
2022/03/20 06:45:49;;;;;;;4.10;2.30;;;4.60;99.90;;;;;;5114802;28;20225;-75
2022/03/20 06:48:15;;;;;;;3.43;3.13;;;4.80;99.90;;;;;;5114489;28;20206;-75
2022/03/20 06:50:41;;;;;;;3.83;3.53;;;5.10;99.90;;;;;;5114224;28;20183;-75
2022/03/20 06:53:06;;;;;;;5.50;3.83;;;5.30;99.90;;;;;;5114150;28;20232;-75
2022/03/20 06:55:32;;;;;;;4.03;3.77;;;5.40;99.90;;;;;;5114369;28;20249;-75
2022/03/20 06:57:58;;;;;;;5.17;4.70;;;5.50;99.90;;;;;;5114531;28;20183;-75
2022/03/20 07:00:26;;;;;;;1.60;1.50;;;5.60;99.90;;;;;;5112985;28;20186;-75
2022/03/20 07:02:53;;;;;;;8.47;3.67;;;5.70;99.90;;;;;;5113946;28;20572;-75
2022/03/20 07:05:19;;;;;;;12.73;4.43;;;5.70;99.90;;;;;;5106289;28;20174;-75
2022/03/20 07:07:45;;;;;;;11.00;4.70;;;5.80;99.90;;;;;;5106066;28;20203;-75
2022/03/20 07:10:13;;;;;;;6.57;2.90;;;5.90;99.90;;;;;;5114045;28;20250;-75
2022/03/20 07:12:39;;;;;;;3.87;3.47;;;6.00;99.90;;;;;;5110857;28;20546;-77
2022/03/20 07:15:05;;;;;;;5.00;4.53;;;6.10;99.90;;;;;;5114475;28;20185;-77
2022/03/20 07:17:30;;;;;;;9.27;3.77;;;6.30;99.90;;;;;;5115244;28;20199;-76
2022/03/20 07:19:58;;;;;;;4.53;4.07;;;6.30;99.90;;;;;;5113857;28;20185;-76
2022/03/20 07:22:24;;;;;;;4.77;4.30;;;6.40;99.90;;;;;;5113713;27;20194;-76
2022/03/20 07:24:49;;;;;;;1.87;1.77;;;6.30;99.90;;;;;;5112368;28;20186;-76
2022/03/20 07:29:59;;;;;;;2.07;1.90;;;6.00;99.90;;;;;;5113792;28;20174;-76
2022/03/20 07:32:25;;;;;;;3.07;2.77;;;5.90;99.90;;;;;;5112294;28;20183;-75
2022/03/20 07:34:51;;;;;;;4.10;3.47;;;6.00;99.90;;;;;;5115477;28;20473;-74
2022/03/20 07:37:18;;;;;;;5.30;4.23;;;6.20;99.90;;;;;;5115957;28;20195;-74
2022/03/20 07:39:46;;;;;;;8.13;3.63;;;6.30;99.90;;;;;;5112493;28;20183;-74
2022/03/20 07:42:11;;;;;;;3.57;3.27;;;6.40;99.90;;;;;;5094697;28;20180;-74
2022/03/20 07:44:37;;;;;;;6.97;4.77;;;6.50;99.90;;;;;;5116272;28;20224;-74
2022/03/20 07:47:08;;;;;;;1.80;1.63;;;6.60;99.90;;;;;;5115833;28;20255;-74
2022/03/20 07:49:36;;;;;;;4.63;4.00;;;6.80;99.90;;;;;;5115793;28;20584;-74
2022/03/20 07:52:03;;;;;;;6.37;4.07;;;7.00;99.90;;;;;;5114863;28;20187;-74
2022/03/20 07:54:29;;;;;;;4.50;3.27;;;7.30;99.90;;;;;;5115131;28;20175;-74
2022/03/20 07:56:55;;;;;;;10.20;4.27;;;7.30;99.90;;;;;;5115280;28;20203;-74
2022/03/20 07:59:20;;;;;;;7.17;5.20;;;7.30;99.90;;;;;;5114795;28;20171;-74
2022/03/20 08:01:46;;;;;;;3.53;3.00;;;7.20;99.90;;;;;;5114710;28;20546;-74
2022/03/20 08:04:11;;;;;;;4.90;4.43;;;7.30;99.90;;;;;;5114481;28;20179;-71
2022/03/20 08:06:37;;;;;;;7.43;5.43;;;7.40;99.90;;;;;;5097634;28;20237;-72
2022/03/20 08:09:04;;;;;;;2.17;1.83;;;7.40;99.90;;;;;;5113779;28;20209;-72
2022/03/20 08:11:30;;;;;;;4.43;4.13;;;7.40;99.90;;;;;;5110865;28;20199;-71
2022/03/20 08:14:00;;;;;;;5.93;5.53;;;7.50;99.90;;;;;;5113909;28;20186;-72
2022/03/20 08:16:26;;;;;;;10.73;4.60;;;7.50;99.90;;;;;;5113321;28;20195;-73
2022/03/20 08:18:53;;;;;;;7.90;6.83;;;7.60;99.90;;;;;;5113584;28;20183;-73
2022/03/20 08:21:19;;;;;;;4.33;3.70;;;7.70;99.90;;;;;;5112827;28;20179;-71
2022/03/20 08:23:45;;;;;;;13.30;4.00;;;7.60;99.90;;;;;;5112867;28;20182;-71
2022/03/20 08:26:11;;;;;;;6.07;3.40;;;7.60;99.90;;;;;;5133743;22;20217;-76
2022/03/20 08:28:38;;;;;;;11.70;6.20;;;7.80;99.90;;;;;;5030050;28;20685;-73
2022/03/20 08:31:06;;;;;;;8.03;4.37;;;8.00;99.90;;;;;;5031893;28;20196;-73
2022/03/20 08:33:35;;;;;;;3.33;2.93;;;7.90;99.90;;;;;;5031765;28;20170;-74
2022/03/20 08:36:02;;;;;;;2.70;2.47;;;8.00;99.90;;;;;;5031227;28;20275;-73
2022/03/20 08:38:28;;;;;;;3.93;3.63;;;8.10;99.90;;;;;;5011971;28;20208;-73
2022/03/20 08:40:54;;;;;;;8.27;4.90;;;8.20;99.90;;;;;;4994511;28;20178;-74
2022/03/20 08:43:21;;;;;;;12.83;6.37;;;8.30;99.90;;;;;;4994067;28;20183;-74
2022/03/20 08:45:47;;;;;;;5.23;3.77;;;8.30;99.90;;;;;;4994334;28;20740;-74
2022/03/20 08:48:13;;;;;;;3.23;1.97;;;8.30;99.90;;;;;;5011911;28;20256;-75
2022/03/20 08:50:39;;;;;;;7.60;4.90;;;8.60;99.90;;;;;;5011906;28;20907;-75
2022/03/20 08:53:05;;;;;;;5.57;2.33;;;8.60;99.90;;;;;;5010938;28;20182;-75
2022/03/20 08:55:33;;;;;;;12.87;5.53;;;8.80;99.90;;;;;;4994232;28;20666;-75
2022/03/20 08:57:59;;;;;;;13.53;4.87;;;8.80;99.90;;;;;;5011467;28;20694;-75
2022/03/20 09:00:25;;;;;;;14.03;6.70;;;9.20;99.90;;;;;;5011797;28;20266;-74
2022/03/20 09:02:51;;;;;;;5.53;5.03;;;9.20;99.90;;;;;;5011482;28;20183;-75
2022/03/20 09:05:18;;;;;;;6.50;4.50;;;9.10;99.90;;;;;;5011640;28;20189;-75
2022/03/20 09:07:45;;;;;;;11.37;4.07;;;8.90;99.90;;;;;;5002470;28;20210;-72
2022/03/20 09:10:13;;;;;;;4.30;3.90;;;8.90;99.90;;;;;;5030340;28;20551;-74
2022/03/20 09:12:38;;;;;;;11.37;6.20;;;9.00;99.90;;;;;;5018191;28;20206;-74
2022/03/20 09:15:09;;;;;;;3.13;1.83;;;9.00;99.90;;;;;;4993929;28;20681;-76
2022/03/20 09:20:19;;;;;;;6.30;3.57;;;9.10;99.90;;;;;;5011710;28;20565;-76
2022/03/20 09:22:44;;;;;;;11.50;5.47;;;9.30;99.90;;;;;;5015189;28;20178;-76
2022/03/20 09:25:10;;;;;;;3.53;3.33;;;9.30;99.90;;;;;;4993882;28;20174;-77
2022/03/20 09:27:36;;;;;;;2.77;2.47;;;9.10;99.90;;;;;;5022189;28;20206;-76
2022/03/20 09:30:04;;;;;;;6.67;4.10;;;9.00;99.90;;;;;;4993057;28;20186;-76
2022/03/20 09:32:29;;;;;;;8.20;4.67;;;8.70;99.90;;;;;;5013499;28;20171;-77
2022/03/20 09:34:55;;;;;;;28.20;5.63;;;8.60;99.90;;;;;;5020079;28;20177;-76
2022/03/20 09:37:20;;;;;;;12.50;4.33;;;8.60;99.90;;;;;;5020800;28;20201;-75
2022/03/20 09:39:46;;;;;;;7.47;6.30;;;8.60;99.90;;;;;;5013123;28;20700;-77
2022/03/20 09:42:12;;;;;;;7.23;5.07;;;8.80;99.90;;;;;;5022397;28;20231;-76
2022/03/20 09:44:38;;;;;;;4.70;3.30;;;8.80;99.90;;;;;;5019356;28;20661;-75
2022/03/20 09:47:17;;;;;;;10.67;5.93;;;8.90;99.90;;;;;;4995057;28;20424;-76
2022/03/20 09:49:44;;;;;;;4.47;3.97;;;9.00;99.90;;;;;;5011194;28;20174;-76
2022/03/20 09:52:10;;;;;;;8.83;5.83;;;9.00;99.90;;;;;;5016716;28;20178;-77
2022/03/20 09:54:36;;;;;;;18.17;4.67;;;8.90;99.90;;;;;;5014005;28;20253;-76
2022/03/20 09:57:07;;;;;;;6.53;5.13;;;9.20;99.90;;;;;;4995582;28;20755;-76
2022/03/20 09:59:34;;;;;;;4.53;3.63;;;9.60;99.90;;;;;;5009517;28;20189;-76
2022/03/20 10:02:04;;;;;;;6.97;4.10;;;9.60;99.90;;;;;;5001990;28;20251;-76
2022/03/20 10:04:30;;;;;;;7.23;3.90;;;9.50;99.90;;;;;;5006086;28;20333;-76
2022/03/20 10:06:55;;;;;;;4.23;3.10;;;9.50;99.90;;;;;;4996620;28;20293;-77
2022/03/20 10:09:23;;;;;;;4.87;3.67;;;9.80;99.90;;;;;;5011176;28;20166;-76
2022/03/20 10:11:54;;;;;;;7.80;4.07;;;10.20;99.90;;;;;;5016938;28;20642;-76
2022/03/20 10:14:26;;;;;;;9.40;4.30;;;10.40;99.90;;;;;;5014615;28;20240;-76
2022/03/20 10:17:08;;;;;;;6.73;5.10;;;10.40;99.90;;;;;;4997308;28;20191;-76
2022/03/20 10:19:34;;;;;;;7.90;5.40;;;10.40;99.90;;;;;;5009502;28;20208;-76
2022/03/20 10:22:06;;;;;;;11.47;5.57;;;10.50;99.90;;;;;;5000210;28;20174;-76
2022/03/20 10:24:36;;;;;;;4.83;3.97;;;10.20;99.90;;;;;;5023269;28;20162;-76
2022/03/20 10:27:01;;;;;;;4.83;3.67;;;10.20;99.90;;;;;;5020037;28;20776;-76
2022/03/20 10:29:29;;;;;;;13.87;3.90;;;10.20;99.90;;;;;;5017939;28;20273;-76
2022/03/20 10:32:00;;;;;;;6.13;4.63;;;10.30;99.90;;;;;;5007508;28;20174;-76
2022/03/20 10:34:26;;;;;;;5.80;4.53;;;10.70;99.90;;;;;;5020373;28;20188;-76
2022/03/20 10:36:52;;;;;;;17.07;7.20;;;11.20;99.90;;;;;;5025516;28;20673;-77
2022/03/20 10:39:26;;;;;;;4.10;3.17;;;11.00;99.90;;;;;;5015989;28;20253;-76
2022/03/20 10:41:58;;;;;;;5.37;4.60;;;11.10;99.90;;;;;;5014032;28;20191;-76
2022/03/20 10:44:25;;;;;;;4.97;4.40;;;11.40;99.90;;;;;;5013841;28;20472;-75
2022/03/20 10:46:59;;;;;;;8.33;6.67;;;11.30;99.90;;;;;;5022623;28;20200;-76
2022/03/20 10:49:25;;;;;;;10.07;5.70;;;10.50;99.90;;;;;;5012656;28;20179;-77
2022/03/20 10:52:08;;;;;;;8.43;5.60;;;10.60;99.90;;;;;;5018825;28;20221;-76
2022/03/20 10:54:51;;;;;;;14.27;5.53;;;10.80;99.90;;;;;;5023028;28;20166;-76
2022/03/20 10:57:18;;;;;;;17.33;8.03;;;10.90;99.90;;;;;;5021995;28;20206;-77
2022/03/20 10:59:56;;;;;;;5.20;4.70;;;11.20;99.90;;;;;;5013800;28;20180;-75
2022/03/20 11:02:24;;;;;;;5.13;3.67;;;11.20;99.90;;;;;;5017367;28;20170;-76
2022/03/20 11:04:50;;;;;;;9.57;4.80;;;11.40;99.90;;;;;;5021543;28;20689;-77
2022/03/20 11:07:23;;;;;;;8.80;4.57;;;11.20;99.90;;;;;;5013611;28;20202;-77
2022/03/20 11:09:55;;;;;;;7.33;5.13;;;11.40;99.90;;;;;;5017410;28;20171;-76
2022/03/20 11:12:32;;;;;;;4.83;4.33;;;11.60;99.90;;;;;;5022298;28;20186;-75
2022/03/20 11:15:07;;;;;;;10.57;5.50;;;11.50;99.90;;;;;;5016287;28;20691;-76
2022/03/20 11:17:46;;;;;;;7.73;4.80;;;11.70;99.90;;;;;;5008822;28;20592;-76
2022/03/20 11:20:13;;;;;;;11.47;4.00;;;11.90;99.90;;;;;;5001619;28;20669;-76
2022/03/20 11:22:53;;;;;;;6.30;5.27;;;11.60;99.90;;;;;;5012826;28;20677;-77
2022/03/20 11:25:24;;;;;;;7.90;4.50;;;11.80;99.90;;;;;;5013416;28;20353;-76
2022/03/20 11:27:59;;;;;;;5.90;4.60;;;11.30;99.90;;;;;;5013195;28;20209;-77
2022/03/20 11:30:31;;;;;;;8.67;5.00;;;11.30;99.90;;;;;;5013134;28;20174;-77
2022/03/20 11:33:00;;;;;;;5.23;4.87;;;11.20;99.90;;;;;;5013714;28;20221;-76
2022/03/20 11:35:30;;;;;;;4.03;3.73;;;10.90;99.90;;;;;;5014004;28;20201;-77
2022/03/20 11:37:59;;;;;;;8.77;6.90;;;10.90;99.90;;;;;;4997000;28;20602;-76
2022/03/20 11:40:26;;;;;;;11.83;4.43;;;10.90;99.90;;;;;;5013086;28;20178;-76
2022/03/20 11:43:16;;;;;;;6.30;5.43;;;10.80;99.90;;;;;;5013222;28;20206;-76
2022/03/20 11:46:03;;;;;;;18.80;8.80;;;10.80;99.90;;;;;;5012732;28;20182;-77
2022/03/20 11:48:29;;;;;;;7.23;5.27;;;10.80;99.90;;;;;;5012784;28;20301;-76
2022/03/20 11:50:54;;;;;;;8.83;5.30;;;10.80;99.90;;;;;;5012929;28;20603;-76
2022/03/20 11:53:27;;;;;;;5.50;3.90;;;10.70;99.90;;;;;;5012659;28;20253;-76
2022/03/20 11:55:52;;;;;;;4.70;4.30;;;10.60;99.90;;;;;;5012965;28;20598;-76
2022/03/20 11:58:21;;;;;;;8.20;6.40;;;10.50;99.90;;;;;;5012565;28;20316;-76
2022/03/20 12:01:04;;;;;;;3.53;3.30;;;10.50;99.90;;;;;;4995213;28;20598;-77
2022/03/20 12:04:12;;;;;;;17.63;7.80;;;10.40;99.90;;;;;;5012598;28;20178;-76
2022/03/20 12:06:50;;;;;;;9.70;6.78;;;10.40;99.90;;;;;;5011150;28;20868;-76
2022/03/20 12:09:40;;;;;;;4.83;3.47;;;10.50;99.90;;;;;;5012645;28;20272;-76
2022/03/20 12:12:21;;;;;;;6.57;4.10;;;10.40;99.90;;;;;;5015099;28;20317;-76
2022/03/20 12:14:53;;;;;;;10.83;7.23;;;10.40;99.90;;;;;;5012212;28;20182;-76
2022/03/20 12:17:19;;;;;;;4.63;4.23;;;10.40;99.90;;;;;;5012428;28;20191;-76
2022/03/20 12:19:53;;;;;;;13.03;4.40;;;10.50;99.90;;;;;;5012407;28;20182;-76
2022/03/20 12:22:18;;;;;;;8.60;3.97;;;10.50;99.90;;;;;;5012055;28;20187;-76
2022/03/20 12:25:03;;;;;;;3.43;3.13;;;10.50;99.90;;;;;;5016952;28;20560;-76
2022/03/20 12:27:32;;;;;;;4.13;3.80;;;10.50;99.90;;;;;;5030600;28;20788;-76
2022/03/20 12:30:13;;;;;;;7.77;4.07;;;10.30;99.90;;;;;;5030174;28;20169;-76
2022/03/20 12:32:48;;;;;;;4.30;2.97;;;10.30;99.90;;;;;;5019494;28;20687;-76
2022/03/20 12:35:22;;;;;;;3.40;3.17;;;10.10;99.90;;;;;;5011499;28;20181;-76
2022/03/20 12:37:49;;;;;;;5.03;3.37;;;9.90;99.90;;;;;;5017377;28;20243;-76
2022/03/20 12:40:18;;;;;;;4.63;3.97;;;9.80;99.90;;;;;;5031909;28;20181;-76
2022/03/20 12:42:55;;;;;;;3.30;3.10;;;9.70;99.90;;;;;;5013644;28;20666;-77
2022/03/20 12:45:21;;;;;;;5.53;4.87;;;9.60;99.90;;;;;;5014004;28;20177;-77
2022/03/20 12:48:16;;;;;;;7.63;6.40;;;9.60;99.90;;;;;;5031415;28;20585;-77
2022/03/20 12:51:11;;;;;;;6.93;6.23;;;9.50;99.90;;;;;;5001795;28;20806;-77
2022/03/20 12:53:44;;;;;;;4.13;3.60;;;9.50;99.90;;;;;;5024148;28;20278;-77
2022/03/20 12:56:14;;;;;;;6.37;4.00;;;9.40;99.90;;;;;;5031588;28;20677;-77
2022/03/20 12:58:40;;;;;;;7.00;5.60;;;9.40;99.90;;;;;;5013558;28;20217;-77
2022/03/20 13:01:12;;;;;;;10.97;6.80;;;9.30;99.90;;;;;;5031533;28;20209;-77
2022/03/20 13:03:37;;;;;;;6.77;4.10;;;9.10;99.90;;;;;;5031425;28;20681;-77
2022/03/20 13:06:03;;;;;;;18.20;4.63;;;8.90;99.90;;;;;;5017945;28;20182;-77
2022/03/20 13:08:34;;;;;;;7.13;4.40;;;8.80;99.90;;;;;;5010019;28;20260;-78
2022/03/20 13:11:48;;;;;;;10.77;7.00;;;8.70;99.90;;;;;;5013201;28;20665;-76
2022/03/20 13:13:52;;;;;;;4.47;4.00;;;8.60;99.90;;;;;;5009318;28;20178;-77
2022/03/20 13:16:17;;;;;;;7.43;4.77;;;8.40;99.90;;;;;;5031209;28;20184;-77
2022/03/20 13:18:45;;;;;;;3.63;3.17;;;8.50;99.90;;;;;;5031409;28;20178;-76
2022/03/20 13:21:11;;;;;;;5.70;4.20;;;8.40;99.90;;;;;;5013485;28;20181;-77
2022/03/20 13:23:36;;;;;;;3.87;3.57;;;8.40;99.90;;;;;;5030616;28;20252;-77
2022/03/20 13:26:02;;;;;;;4.53;3.70;;;8.40;99.90;;;;;;5031331;28;20178;-78
2022/03/20 13:28:33;;;;;;;4.10;2.83;;;8.40;99.90;;;;;;5031003;28;20321;-78
2022/03/20 13:31:11;;;;;;;5.43;3.70;;;8.40;99.90;;;;;;5013121;28;20178;-77
2022/03/20 13:33:40;;;;;;;3.27;3.03;;;8.30;99.90;;;;;;5012935;28;20182;-78